createdAt,value
2022-08-25T00:00:29.840Z,95.02
2022-08-25T00:01:29.815Z,95.42
2022-08-25T00:02:29.850Z,94.62
2022-08-25T00:03:29.797Z,94.62
2022-08-25T00:04:30.784Z,94.92
2022-08-25T00:05:32.316Z,94.42
2022-08-25T00:06:29.761Z,94.62
2022-08-25T00:07:29.747Z,94.01
2022-08-25T00:08:29.723Z,94.42
2022-08-25T00:09:29.708Z,94.72
2022-08-25T00:10:29.713Z,94.62
2022-08-25T00:11:29.695Z,94.26
2022-08-25T00:12:29.670Z,94.46
2022-08-25T00:13:29.680Z,94.76
2022-08-25T00:14:29.650Z,95.57
2022-08-25T00:15:29.731Z,95.47
2022-08-25T00:16:29.619Z,95.17
2022-08-25T00:17:29.601Z,95.07
2022-08-25T00:18:29.591Z,94.67
2022-08-25T00:19:29.575Z,94.76
2022-08-25T00:20:29.581Z,94.76
2022-08-25T00:21:30.773Z,94.67
2022-08-25T00:22:29.543Z,95.07
2022-08-25T00:23:29.524Z,95.07
2022-08-25T00:24:29.511Z,95.07
2022-08-25T00:25:29.514Z,95.47
2022-08-25T00:26:29.485Z,95.67
2022-08-25T00:27:29.474Z,94.96
2022-08-25T00:28:29.455Z,94.87
2022-08-25T00:29:29.466Z,94.67
2022-08-25T00:30:29.444Z,94.87
2022-08-25T00:31:38.598Z,94.96
2022-08-25T00:32:30.407Z,95.47
2022-08-25T00:33:29.398Z,95.37
2022-08-25T00:34:29.396Z,95.47
2022-08-25T00:35:29.379Z,95.37
2022-08-25T00:36:29.361Z,95.07
2022-08-25T00:37:29.342Z,94.96
2022-08-25T00:38:29.326Z,94.76
2022-08-25T00:39:29.309Z,94.87
2022-08-25T00:40:29.358Z,94.76
2022-08-25T00:41:29.289Z,94.96
2022-08-25T00:42:29.278Z,94.87
2022-08-25T00:43:29.261Z,95.17
2022-08-25T00:44:29.267Z,95.47
2022-08-25T00:45:30.189Z,95.97
2022-08-25T00:46:29.293Z,96.48
2022-08-25T00:47:29.202Z,97.08
2022-08-25T00:48:29.198Z,96.58
2022-08-25T00:49:29.175Z,96.28
2022-08-25T00:50:29.172Z,96.32
2022-08-25T00:51:29.200Z,95.61
2022-08-25T00:52:29.142Z,95.81
2022-08-25T00:53:29.121Z,96.01
2022-08-25T00:54:29.120Z,96.32
2022-08-25T00:55:29.113Z,97.08
2022-08-25T00:56:29.085Z,97.08
2022-08-25T00:57:34.884Z,97.28
2022-08-25T00:58:30.061Z,97.03
2022-08-25T00:59:29.045Z,96.42
2022-08-25T01:00:29.303Z,96.62
2022-08-25T01:01:29.091Z,96.42
2022-08-25T01:02:29.062Z,96.32
2022-08-25T01:03:33.495Z,96.32
2022-08-25T01:04:29.978Z,96.12
2022-08-25T01:05:28.977Z,95.92
2022-08-25T01:06:28.948Z,95.61
2022-08-25T01:07:28.939Z,95.51
2022-08-25T01:08:29.281Z,95.11
2022-08-25T01:09:28.909Z,95.11
2022-08-25T01:10:28.921Z,94.91
2022-08-25T01:11:28.895Z,95.21
2022-08-25T01:12:29.135Z,96.32
2022-08-25T01:13:28.852Z,96.72
2022-08-25T01:14:28.851Z,96.92
2022-08-25T01:15:28.885Z,96.72
2022-08-25T01:16:28.828Z,96.42
2022-08-25T01:17:28.801Z,96.06
2022-08-25T01:18:28.792Z,95.66
2022-08-25T01:19:28.781Z,95.72
2022-08-25T01:20:29.399Z,95.66
2022-08-25T01:21:28.743Z,95.36
2022-08-25T01:22:28.743Z,96.87
2022-08-25T01:23:28.723Z,97.07
2022-08-25T01:24:28.720Z,97.38
2022-08-25T01:25:28.700Z,96.97
2022-08-25T01:26:30.541Z,96.56
2022-08-25T01:27:28.667Z,96.36
2022-08-25T01:28:28.672Z,96.56
2022-08-25T01:29:28.645Z,96.56
2022-08-25T01:30:28.637Z,96.77
2022-08-25T01:31:28.662Z,96.67
2022-08-25T01:32:28.604Z,96.56
2022-08-25T01:33:28.588Z,96.97
2022-08-25T01:34:28.600Z,97.67
2022-08-25T01:35:28.558Z,97.67
2022-08-25T01:36:28.548Z,97.47
2022-08-25T01:37:28.539Z,97.47
2022-08-25T01:38:28.531Z,97.17
2022-08-25T01:39:28.519Z,97.88
2022-08-25T01:41:37.712Z,99.13
2022-08-25T01:42:37.963Z,99.24
2022-08-25T01:43:37.672Z,99.64
2022-08-25T01:44:37.670Z,99.99
2022-08-25T01:45:37.703Z,99.99
2022-08-25T01:46:37.723Z,99.99
2022-08-25T01:47:37.625Z,99.99
2022-08-25T01:48:37.613Z,99.99
2022-08-25T01:49:37.606Z,99.99
2022-08-25T01:50:37.586Z,99.99
2022-08-25T01:51:37.576Z,99.99
2022-08-25T01:52:37.556Z,99.99
2022-08-25T01:53:37.547Z,99.99
2022-08-25T01:54:37.547Z,99.99
2022-08-25T01:55:37.517Z,99.99
2022-08-25T01:56:37.504Z,99.99
2022-08-25T01:57:37.497Z,99.58
2022-08-25T01:58:37.494Z,99.28
2022-08-25T01:59:37.480Z,99.08
2022-08-25T02:00:37.455Z,98.78
2022-08-25T02:01:37.516Z,98.37
2022-08-25T02:02:37.458Z,97.97
2022-08-25T02:03:38.439Z,97.87
2022-08-25T02:04:37.430Z,98.07
2022-08-25T02:05:37.385Z,97.87
2022-08-25T02:06:37.374Z,98.27
2022-08-25T02:07:37.351Z,98.58
2022-08-25T02:08:37.380Z,99.38
2022-08-25T02:09:37.333Z,99.58
2022-08-25T02:10:37.319Z,99.28
2022-08-25T02:11:37.302Z,99.58
2022-08-25T02:12:37.303Z,99.99
2022-08-25T02:13:37.284Z,99.99
2022-08-25T02:14:37.274Z,99.99
2022-08-25T02:15:37.252Z,99.99
2022-08-25T02:16:37.336Z,99.99
2022-08-25T02:17:37.222Z,99.99
2022-08-25T02:18:37.226Z,99.88
2022-08-25T02:19:37.196Z,99.84
2022-08-25T02:20:37.190Z,99.38
2022-08-25T02:21:37.179Z,99.08
2022-08-25T02:22:37.159Z,98.68
2022-08-25T02:23:37.163Z,98.78
2022-08-25T02:24:37.138Z,98.47
2022-08-25T02:25:37.127Z,98.58
2022-08-25T02:26:37.110Z,98.78
2022-08-25T02:27:38.058Z,99.08
2022-08-25T02:28:37.089Z,98.98
2022-08-25T02:29:37.060Z,98.98
2022-08-25T02:30:37.123Z,98.47
2022-08-25T02:31:37.039Z,98.37
2022-08-25T02:32:37.030Z,98.17
2022-08-25T02:33:37.019Z,97.97
2022-08-25T02:34:37.015Z,97.77
2022-08-25T02:35:36.981Z,97.56
2022-08-25T02:36:36.978Z,97.67
2022-08-25T02:37:36.972Z,97.77
2022-08-25T02:38:36.952Z,97.97
2022-08-25T02:39:36.935Z,97.87
2022-08-25T02:40:36.923Z,97.87
2022-08-25T02:41:36.902Z,97.77
2022-08-25T02:42:36.913Z,97.87
2022-08-25T02:43:36.883Z,97.47
2022-08-25T02:44:37.107Z,97.47
2022-08-25T02:45:36.907Z,97.77
2022-08-25T02:46:36.874Z,97.71
2022-08-25T02:47:36.830Z,97.97
2022-08-25T02:48:36.826Z,98.07
2022-08-25T02:49:36.796Z,97.97
2022-08-25T02:50:36.786Z,97.81
2022-08-25T02:51:36.775Z,97.81
2022-08-25T02:52:36.776Z,97.77
2022-08-25T02:53:36.747Z,98.27
2022-08-25T02:54:36.739Z,98.47
2022-08-25T02:55:36.725Z,98.07
2022-08-25T02:56:36.705Z,98.37
2022-08-25T02:57:36.708Z,98.27
2022-08-25T02:58:36.676Z,98.27
2022-08-25T02:59:36.929Z,98.17
2022-08-25T03:00:36.649Z,98.47
2022-08-25T03:01:36.662Z,99.58
2022-08-25T03:02:36.630Z,99.58
2022-08-25T03:03:39.418Z,99.18
2022-08-25T03:04:36.619Z,98.98
2022-08-25T03:05:36.581Z,99.18
2022-08-25T03:06:36.581Z,98.88
2022-08-25T03:07:36.572Z,98.58
2022-08-25T03:08:36.553Z,98.68
2022-08-25T03:09:36.763Z,99.28
2022-08-25T03:10:36.513Z,98.98
2022-08-25T03:11:36.509Z,99.18
2022-08-25T03:12:36.509Z,99.18
2022-08-25T03:13:36.484Z,98.78
2022-08-25T03:14:36.468Z,98.88
2022-08-25T03:15:36.444Z,98.88
2022-08-25T03:16:36.482Z,98.68
2022-08-25T03:17:36.425Z,97.87
2022-08-25T03:18:36.420Z,97.97
2022-08-25T03:19:36.385Z,98.07
2022-08-25T03:20:36.376Z,98.27
2022-08-25T03:21:36.367Z,99.08
2022-08-25T03:22:36.597Z,99.79
2022-08-25T03:23:36.405Z,99.99
2022-08-25T03:24:36.334Z,99.79
2022-08-25T03:25:36.311Z,99.38
2022-08-25T03:26:36.310Z,98.98
2022-08-25T03:27:36.288Z,98.88
2022-08-25T03:28:36.298Z,98.47
2022-08-25T03:29:36.250Z,97.77
2022-08-25T03:30:36.242Z,98.17
2022-08-25T03:31:36.289Z,97.97
2022-08-25T03:32:36.234Z,97.36
2022-08-25T03:33:36.240Z,97.56
2022-08-25T03:34:36.226Z,97.27
2022-08-25T03:35:36.183Z,97.16
2022-08-25T03:36:36.161Z,96.96
2022-08-25T03:37:36.151Z,97.27
2022-08-25T03:38:36.152Z,96.76
2022-08-25T03:39:36.122Z,96.45
2022-08-25T03:40:36.113Z,96.86
2022-08-25T03:41:37.054Z,96.96
2022-08-25T03:42:37.033Z,97.21
2022-08-25T03:43:36.084Z,97.77
2022-08-25T03:44:36.054Z,97.77
2022-08-25T03:45:36.075Z,98.07
2022-08-25T03:46:36.036Z,98.27
2022-08-25T03:47:36.015Z,98.58
2022-08-25T03:48:36.984Z,99.18
2022-08-25T03:49:35.985Z,99.18
2022-08-25T03:50:35.987Z,98.58
2022-08-25T03:51:35.985Z,98.27
2022-08-25T03:52:40.184Z,98.22
2022-08-25T03:53:36.936Z,98.22
2022-08-25T03:54:35.925Z,98.98
2022-08-25T03:55:35.919Z,99.99
2022-08-25T03:56:35.912Z,99.99
2022-08-25T03:57:35.879Z,99.68
2022-08-25T03:58:35.880Z,99.38
2022-08-25T03:59:35.860Z,99.38
2022-08-25T04:00:35.868Z,99.28
2022-08-25T04:01:35.862Z,99.28
2022-08-25T04:02:35.844Z,98.98
2022-08-25T04:03:35.809Z,98.88
2022-08-25T04:04:35.791Z,99.18
2022-08-25T04:05:35.786Z,99.18
2022-08-25T04:06:35.760Z,99.18
2022-08-25T04:07:35.756Z,99.79
2022-08-25T04:08:35.982Z,99.79
2022-08-25T04:09:36.965Z,99.68
2022-08-25T04:10:35.718Z,99.99
2022-08-25T04:11:35.703Z,99.28
2022-08-25T04:12:35.683Z,99.18
2022-08-25T04:13:35.675Z,99.58
2022-08-25T04:14:35.654Z,99.58
2022-08-25T04:15:35.646Z,99.99
2022-08-25T04:16:35.687Z,99.68
2022-08-25T04:17:35.625Z,99.68
2022-08-25T04:18:35.596Z,99.68
2022-08-25T04:19:35.596Z,99.18
2022-08-25T04:20:35.577Z,98.78
2022-08-25T04:21:35.557Z,98.78
2022-08-25T04:22:36.846Z,98.37
2022-08-25T04:23:35.537Z,99.08
2022-08-25T04:24:35.519Z,99.28
2022-08-25T04:25:35.508Z,98.88
2022-08-25T04:26:35.493Z,98.27
2022-08-25T04:27:35.488Z,98.27
2022-08-25T04:28:35.477Z,97.97
2022-08-25T04:29:35.467Z,97.97
2022-08-25T04:30:35.441Z,98.02
2022-08-25T04:31:35.476Z,98.93
2022-08-25T04:32:35.420Z,99.33
2022-08-25T04:33:35.403Z,99.24
2022-08-25T04:34:35.381Z,98.63
2022-08-25T04:35:35.372Z,98.02
2022-08-25T04:36:35.359Z,99.13
2022-08-25T04:37:35.369Z,99.54
2022-08-25T04:38:35.332Z,99.24
2022-08-25T04:39:35.322Z,98.63
2022-08-25T04:40:35.364Z,98.02
2022-08-25T04:41:35.293Z,97.22
2022-08-25T04:42:35.284Z,97.72
2022-08-25T04:43:35.280Z,98.13
2022-08-25T04:44:35.254Z,98.13
2022-08-25T04:45:35.320Z,98.13
2022-08-25T04:46:35.225Z,97.22
2022-08-25T04:47:35.226Z,97.12
2022-08-25T04:48:35.196Z,97.22
2022-08-25T04:49:35.193Z,97.78
2022-08-25T04:50:35.176Z,97.78
2022-08-25T04:51:35.174Z,97.42
2022-08-25T04:52:35.149Z,96.87
2022-08-25T04:53:35.134Z,97.12
2022-08-25T04:54:37.401Z,96.47
2022-08-25T04:55:35.108Z,95.96
2022-08-25T04:56:35.089Z,96.56
2022-08-25T04:57:35.090Z,96.77
2022-08-25T04:58:35.065Z,96.77
2022-08-25T04:59:35.059Z,95.86
2022-08-25T05:00:35.066Z,96.47
2022-08-25T05:01:35.027Z,97.47
2022-08-25T05:02:35.020Z,97.27
2022-08-25T05:03:34.999Z,97.27
2022-08-25T05:04:35.077Z,97.47
2022-08-25T05:05:34.981Z,97.07
2022-08-25T05:06:34.983Z,96.67
2022-08-25T05:07:34.985Z,96.42
2022-08-25T05:08:34.941Z,95.66
2022-08-25T05:09:35.871Z,95.36
2022-08-25T05:10:34.912Z,95.61
2022-08-25T05:11:34.918Z,95.92
2022-08-25T05:12:34.886Z,96.12
2022-08-25T05:13:34.887Z,96.72
2022-08-25T05:14:34.849Z,97.03
2022-08-25T05:15:34.841Z,96.42
2022-08-25T05:16:34.914Z,96.62
2022-08-25T05:17:34.840Z,96.58
2022-08-25T05:18:34.833Z,96.88
2022-08-25T05:19:34.789Z,97.08
2022-08-25T05:20:34.767Z,97.49
2022-08-25T05:21:34.768Z,98.49
2022-08-25T05:22:34.753Z,98.19
2022-08-25T05:23:34.737Z,98.19
2022-08-25T05:24:34.727Z,98.94
2022-08-25T05:25:34.709Z,99.05
2022-08-25T05:26:34.741Z,99.25
2022-08-25T05:27:34.690Z,99.15
2022-08-25T05:28:34.679Z,99.15
2022-08-25T05:29:34.659Z,99.25
2022-08-25T05:30:35.580Z,99.20
2022-08-25T05:31:38.395Z,99.00
2022-08-25T05:32:35.611Z,99.10
2022-08-25T05:33:34.603Z,99.20
2022-08-25T05:34:34.582Z,99.51
2022-08-25T05:35:34.579Z,99.80
2022-08-25T05:36:34.563Z,99.99
2022-08-25T05:37:34.552Z,99.99
2022-08-25T05:38:34.534Z,99.99
2022-08-25T05:39:34.523Z,99.99
2022-08-25T05:40:34.511Z,99.99
2022-08-25T05:41:34.502Z,99.99
2022-08-25T05:42:34.484Z,99.99
2022-08-25T05:43:34.465Z,99.99
2022-08-25T05:44:34.457Z,99.99
2022-08-25T05:45:34.502Z,99.99
2022-08-25T05:46:34.436Z,99.99
2022-08-25T05:47:34.413Z,99.99
2022-08-25T05:48:34.405Z,99.99
2022-08-25T05:49:34.387Z,99.99
2022-08-25T05:50:34.368Z,99.99
2022-08-25T05:51:34.377Z,99.99
2022-08-25T05:52:34.349Z,99.99
2022-08-25T05:53:34.338Z,99.99
2022-08-25T05:54:34.334Z,99.99
2022-08-25T05:55:34.310Z,99.99
2022-08-25T05:56:34.299Z,99.99
2022-08-25T05:57:34.287Z,99.99
2022-08-25T05:58:34.281Z,99.99
2022-08-25T05:59:34.257Z,99.99
2022-08-25T06:00:34.251Z,99.99
2022-08-25T06:01:34.260Z,99.99
2022-08-25T06:02:34.219Z,99.99
2022-08-25T06:03:35.193Z,99.99
2022-08-25T06:04:36.586Z,99.99
2022-08-25T06:05:34.179Z,99.99
2022-08-25T06:06:34.174Z,99.99
2022-08-25T06:07:34.154Z,99.99
2022-08-25T06:08:34.169Z,99.99
2022-08-25T06:09:34.125Z,99.99
2022-08-25T06:10:34.105Z,99.99
2022-08-25T06:11:34.119Z,99.99
2022-08-25T06:12:34.085Z,99.99
2022-08-25T06:13:34.076Z,99.99
2022-08-25T06:14:34.057Z,99.99
2022-08-25T06:15:34.046Z,99.77
2022-08-25T06:16:34.054Z,99.07
2022-08-25T06:17:34.137Z,98.86
2022-08-25T06:18:34.028Z,98.97
2022-08-25T06:19:34.003Z,98.82
2022-08-25T06:20:33.998Z,98.52
2022-08-25T06:21:33.969Z,98.52
2022-08-25T06:22:34.218Z,98.42
2022-08-25T06:23:33.952Z,98.32
2022-08-25T06:24:33.928Z,97.97
2022-08-25T06:25:33.913Z,97.97
2022-08-25T06:26:33.910Z,97.77
2022-08-25T06:27:33.880Z,97.67
2022-08-25T06:28:33.871Z,97.47
2022-08-25T06:29:33.871Z,97.17
2022-08-25T06:30:33.845Z,97.22
2022-08-25T06:31:33.894Z,96.97
2022-08-25T06:32:33.813Z,96.67
2022-08-25T06:33:33.805Z,96.67
2022-08-25T06:34:33.793Z,96.82
2022-08-25T06:35:33.783Z,97.02
2022-08-25T06:36:34.731Z,97.02
2022-08-25T06:37:34.555Z,97.02
2022-08-25T06:38:33.735Z,97.02
2022-08-25T06:39:33.735Z,96.88
2022-08-25T06:40:34.691Z,96.58
2022-08-25T06:41:36.803Z,96.37
2022-08-25T06:42:33.686Z,96.47
2022-08-25T06:43:33.677Z,96.37
2022-08-25T06:44:33.656Z,96.17
2022-08-25T06:45:33.656Z,95.97
2022-08-25T06:46:36.318Z,95.87
2022-08-25T06:47:34.579Z,95.67
2022-08-25T06:48:33.614Z,95.47
2022-08-25T06:49:36.206Z,95.47
2022-08-25T06:50:33.590Z,95.32
2022-08-25T06:51:33.567Z,95.23
2022-08-25T06:52:33.560Z,95.12
2022-08-25T06:53:33.541Z,95.03
2022-08-25T06:54:33.521Z,94.88
2022-08-25T06:55:33.522Z,95.08
2022-08-25T06:56:33.493Z,94.93
2022-08-25T06:57:33.489Z,94.19
2022-08-25T06:58:33.473Z,93.59
2022-08-25T06:59:33.490Z,92.94
2022-08-25T07:00:33.487Z,92.65
2022-08-25T07:01:33.623Z,92.35
2022-08-25T07:02:35.403Z,91.95
2022-08-25T07:03:33.429Z,92.05
2022-08-25T07:04:33.396Z,92.25
2022-08-25T07:05:43.489Z,91.95
2022-08-25T07:06:34.360Z,91.90
2022-08-25T07:07:43.592Z,91.30
2022-08-25T07:08:34.346Z,90.86
2022-08-25T07:09:37.329Z,90.62
2022-08-25T07:10:34.316Z,90.42
2022-08-25T07:11:33.310Z,89.58
2022-08-25T07:12:33.287Z,88.88
2022-08-25T07:13:33.278Z,89.14
2022-08-25T07:14:33.259Z,89.00
2022-08-25T07:15:33.300Z,87.90
2022-08-25T07:16:34.221Z,87.80
2022-08-25T07:17:33.219Z,87.95
2022-08-25T07:18:33.210Z,87.65
2022-08-25T07:19:33.197Z,87.46
2022-08-25T07:20:33.181Z,87.35
2022-08-25T07:21:35.460Z,87.65
2022-08-25T07:22:33.151Z,86.56
2022-08-25T07:23:33.139Z,86.66
2022-08-25T07:24:33.142Z,86.46
2022-08-25T07:25:33.143Z,87.35
2022-08-25T07:26:40.081Z,86.86
2022-08-25T07:27:34.099Z,87.12
2022-08-25T07:28:33.074Z,87.21
2022-08-25T07:29:33.324Z,87.21
2022-08-25T07:30:33.065Z,85.38
2022-08-25T07:31:33.071Z,85.28
2022-08-25T07:32:33.016Z,85.68
2022-08-25T07:33:33.016Z,85.34
2022-08-25T07:34:32.987Z,84.74
2022-08-25T07:35:37.354Z,85.54
2022-08-25T07:36:32.968Z,85.14
2022-08-25T07:37:48.092Z,84.84
2022-08-25T07:38:33.948Z,85.04
2022-08-25T07:39:32.932Z,84.80
2022-08-25T07:40:32.954Z,84.17
2022-08-25T07:41:32.914Z,83.97
2022-08-25T07:42:32.899Z,83.57
2022-08-25T07:43:32.876Z,82.97
2022-08-25T07:44:32.866Z,82.78
2022-08-25T07:45:32.882Z,83.31
2022-08-25T07:46:32.868Z,83.91
2022-08-25T07:47:32.832Z,83.71
2022-08-25T07:48:32.842Z,83.71
2022-08-25T07:50:33.784Z,84.34
2022-08-25T07:51:32.788Z,84.41
2022-08-25T07:52:32.785Z,83.91
2022-08-25T07:53:32.762Z,84.80
2022-08-25T07:54:34.224Z,83.51
2022-08-25T07:55:32.715Z,84.20
2022-08-25T07:56:32.695Z,83.77
2022-08-25T07:57:32.693Z,83.77
2022-08-25T07:58:32.686Z,83.17
2022-08-25T07:59:39.231Z,82.87
2022-08-25T08:00:33.648Z,82.78
2022-08-25T08:01:32.664Z,82.04
2022-08-25T08:02:32.665Z,82.54
2022-08-25T08:03:45.199Z,82.14
2022-08-25T08:04:33.610Z,81.94
2022-08-25T08:05:32.589Z,82.24
2022-08-25T08:06:32.570Z,81.70
2022-08-25T08:07:43.427Z,81.30
2022-08-25T08:08:33.550Z,81.80
2022-08-25T08:09:32.541Z,81.70
2022-08-25T08:10:53.872Z,82.56
2022-08-25T08:11:33.537Z,81.07
2022-08-25T08:12:32.493Z,80.37
2022-08-25T08:13:32.484Z,80.27
2022-08-25T08:14:32.481Z,80.65
2022-08-25T08:15:32.453Z,82.54
2022-08-25T08:16:33.691Z,82.78
2022-08-25T08:17:32.426Z,82.18
2022-08-25T08:18:33.371Z,82.48
2022-08-25T08:19:32.423Z,83.01
2022-08-25T08:20:35.926Z,83.31
2022-08-25T08:21:33.376Z,83.11
2022-08-25T08:22:32.364Z,83.31
2022-08-25T08:23:33.306Z,83.51
2022-08-25T08:24:44.695Z,83.51
2022-08-25T08:25:33.328Z,82.71
2022-08-25T08:26:55.304Z,82.81
2022-08-25T08:27:33.308Z,83.27
2022-08-25T08:28:32.279Z,82.24
2022-08-25T08:29:32.270Z,81.48
2022-08-25T08:30:32.257Z,81.92
2022-08-25T08:31:32.261Z,81.92
2022-08-25T08:32:46.430Z,81.82
2022-08-25T08:33:34.169Z,81.23
2022-08-25T08:34:33.217Z,82.81
2022-08-25T08:35:32.192Z,82.42
2022-08-25T08:36:32.193Z,83.57
2022-08-25T08:37:32.158Z,82.68
2022-08-25T08:38:32.171Z,82.54
2022-08-25T08:39:32.688Z,80.65
2022-08-25T08:40:32.208Z,81.34
2022-08-25T08:41:40.201Z,80.55
2022-08-25T08:42:33.095Z,81.24
2022-08-25T08:43:33.444Z,80.25
2022-08-25T08:44:32.086Z,80.15
2022-08-25T08:45:35.361Z,80.55
2022-08-25T08:46:33.088Z,80.55
2022-08-25T08:47:32.026Z,80.45
2022-08-25T08:48:32.280Z,79.36
2022-08-25T08:49:32.247Z,79.56
2022-08-25T08:50:33.609Z,79.91
2022-08-25T08:51:32.781Z,79.91
2022-08-25T08:52:31.967Z,79.72
2022-08-25T08:53:34.234Z,78.72
2022-08-25T08:54:34.029Z,79.48
2022-08-25T08:55:31.921Z,78.59
2022-08-25T08:56:31.910Z,78.99
2022-08-25T08:57:31.891Z,78.69
2022-08-25T08:58:31.888Z,78.99
2022-08-25T08:59:31.932Z,77.95
2022-08-25T09:00:32.818Z,78.05
2022-08-25T09:01:31.898Z,78.55
2022-08-25T09:02:39.331Z,77.72
2022-08-25T09:03:32.864Z,76.79
2022-08-25T09:04:31.818Z,77.34
2022-08-25T09:05:34.384Z,77.45
2022-08-25T09:06:32.772Z,76.85
2022-08-25T09:07:31.771Z,75.63
2022-08-25T09:08:31.756Z,75.43
2022-08-25T09:09:35.782Z,74.74
2022-08-25T09:10:31.731Z,73.71
2022-08-25T09:11:31.710Z,75.29
2022-08-25T09:12:31.706Z,74.86
2022-08-25T09:13:31.700Z,73.08
2022-08-25T09:14:31.668Z,72.98
2022-08-25T09:15:31.693Z,73.97
2022-08-25T09:16:34.490Z,74.40
2022-08-25T09:17:31.630Z,74.21
2022-08-25T09:18:32.591Z,74.21
2022-08-25T09:19:32.090Z,73.94
2022-08-25T09:20:31.641Z,74.24
2022-08-25T09:21:31.604Z,74.08
2022-08-25T09:22:33.462Z,75.67
2022-08-25T09:23:31.582Z,75.76
2022-08-25T09:24:31.573Z,75.24
2022-08-25T09:25:53.391Z,76.92
2022-08-25T09:26:32.514Z,76.67
2022-08-25T09:27:31.496Z,76.07
2022-08-25T09:28:31.503Z,76.70
2022-08-25T09:29:31.479Z,77.59
2022-08-25T09:30:31.456Z,77.76
2022-08-25T09:31:31.489Z,77.06
2022-08-25T09:32:32.395Z,77.50
2022-08-25T09:33:31.427Z,77.00
2022-08-25T09:34:32.358Z,78.25
2022-08-25T09:35:32.339Z,77.66
2022-08-25T09:36:35.489Z,76.82
2022-08-25T09:37:32.367Z,76.73
2022-08-25T09:38:31.370Z,76.03
2022-08-25T09:39:31.349Z,76.99
2022-08-25T09:40:32.343Z,75.20
2022-08-25T09:41:31.321Z,75.60
2022-08-25T09:42:31.299Z,75.60
2022-08-25T09:43:31.293Z,75.90
2022-08-25T09:44:31.270Z,73.91
2022-08-25T09:45:31.271Z,74.67
2022-08-25T09:46:31.268Z,74.57
2022-08-25T09:47:31.234Z,72.60
2022-08-25T09:48:31.237Z,73.68
2022-08-25T09:49:31.207Z,74.27
2022-08-25T09:50:31.196Z,73.25
2022-08-25T09:51:37.898Z,73.55
2022-08-25T09:52:32.409Z,73.85
2022-08-25T09:53:33.813Z,72.62
2022-08-25T09:54:44.406Z,72.92
2022-08-25T09:55:32.422Z,71.23
2022-08-25T09:56:31.116Z,71.89
2022-08-25T09:57:31.097Z,72.29
2022-08-25T09:58:31.088Z,73.58
2022-08-25T09:59:34.963Z,71.40
2022-08-25T10:00:31.067Z,71.99
2022-08-25T10:01:34.537Z,72.19
2022-08-25T10:02:31.039Z,72.06
2022-08-25T10:03:31.029Z,70.61
2022-08-25T10:04:32.011Z,70.57
2022-08-25T10:05:31.011Z,69.85
2022-08-25T10:06:30.998Z,69.92
2022-08-25T10:07:30.972Z,69.49
2022-08-25T10:08:30.971Z,69.68
2022-08-25T10:09:30.963Z,69.82
2022-08-25T10:11:45.159Z,68.83
2022-08-25T10:12:43.911Z,68.57
2022-08-25T10:13:43.932Z,68.66
2022-08-25T10:14:44.480Z,69.65
2022-08-25T10:15:44.094Z,69.29
2022-08-25T10:16:46.886Z,70.87
2022-08-25T10:17:44.031Z,70.18
2022-08-25T10:18:43.124Z,69.16
2022-08-25T10:19:43.023Z,69.56
2022-08-25T10:20:44.735Z,69.35
2022-08-25T10:21:43.027Z,70.97
2022-08-25T10:22:43.007Z,70.77
2022-08-25T10:23:42.992Z,71.07
2022-08-25T10:24:44.222Z,69.95
2022-08-25T10:25:42.966Z,69.12
2022-08-25T10:26:43.947Z,69.68
2022-08-25T10:27:42.937Z,69.71
2022-08-25T10:28:42.916Z,68.73
2022-08-25T10:29:42.898Z,69.65
2022-08-25T10:30:42.961Z,70.25
2022-08-25T10:31:42.879Z,70.51
2022-08-25T10:32:42.873Z,68.43
2022-08-25T10:33:42.847Z,68.83
2022-08-25T10:34:44.386Z,70.21
2022-08-25T10:35:42.829Z,68.46
2022-08-25T10:36:42.811Z,69.39
2022-08-25T10:37:42.812Z,69.98
2022-08-25T10:38:43.525Z,69.78
2022-08-25T10:39:42.780Z,71.07
2022-08-25T10:40:43.639Z,70.21
2022-08-25T10:41:42.734Z,70.81
2022-08-25T10:42:42.870Z,71.11
2022-08-25T10:43:42.977Z,70.48
2022-08-25T10:44:42.692Z,70.57
2022-08-25T10:45:42.686Z,70.31
2022-08-25T10:46:43.214Z,70.45
2022-08-25T10:47:42.666Z,70.38
2022-08-25T10:48:42.650Z,71.50
2022-08-25T10:49:42.636Z,72.69
2022-08-25T10:50:45.596Z,72.60
2022-08-25T10:51:43.615Z,71.93
2022-08-25T10:52:43.559Z,70.71
2022-08-25T10:53:42.579Z,70.38
2022-08-25T10:54:42.562Z,70.25
2022-08-25T10:55:42.551Z,69.06
2022-08-25T10:56:42.569Z,68.57
2022-08-25T10:57:42.542Z,69.35
2022-08-25T10:58:42.512Z,68.30
2022-08-25T10:59:42.502Z,68.57
2022-08-25T11:00:47.708Z,68.86
2022-08-25T11:01:44.489Z,68.99
2022-08-25T11:02:42.523Z,66.66
2022-08-25T11:03:42.444Z,66.36
2022-08-25T11:04:42.450Z,65.01
2022-08-25T11:05:42.435Z,63.90
2022-08-25T11:06:42.420Z,62.69
2022-08-25T11:07:43.453Z,63.87
2022-08-25T11:08:42.386Z,64.62
2022-08-25T11:09:43.336Z,63.77
2022-08-25T11:10:42.346Z,64.62
2022-08-25T11:11:42.369Z,65.11
2022-08-25T11:12:42.334Z,65.77
2022-08-25T11:13:43.278Z,66.03
2022-08-25T11:14:42.328Z,65.84
2022-08-25T11:15:54.822Z,64.13
2022-08-25T11:16:43.329Z,63.84
2022-08-25T11:17:42.271Z,62.62
2022-08-25T11:18:42.251Z,64.00
2022-08-25T11:19:42.247Z,64.32
2022-08-25T11:20:42.232Z,64.16
2022-08-25T11:21:42.213Z,63.77
2022-08-25T11:22:42.202Z,65.54
2022-08-25T11:23:42.194Z,64.09
2022-08-25T11:24:42.198Z,65.97
2022-08-25T11:25:42.165Z,65.47
2022-08-25T11:26:42.157Z,64.91
2022-08-25T11:27:42.140Z,66.79
2022-08-25T11:28:42.125Z,65.70
2022-08-25T11:29:42.106Z,64.88
2022-08-25T11:30:42.124Z,65.15
2022-08-25T11:31:42.081Z,64.03
2022-08-25T11:32:42.089Z,64.03
2022-08-25T11:33:42.058Z,64.65
2022-08-25T11:34:43.860Z,64.03
2022-08-25T11:35:42.039Z,64.45
2022-08-25T11:36:42.022Z,66.36
2022-08-25T11:37:42.020Z,65.90
2022-08-25T11:38:41.997Z,65.47
2022-08-25T11:39:41.981Z,64.98
2022-08-25T11:40:41.994Z,62.71
2022-08-25T11:41:41.982Z,64.00
2022-08-25T11:42:42.190Z,64.39
2022-08-25T11:43:41.923Z,64.72
2022-08-25T11:44:53.270Z,64.62
2022-08-25T11:45:42.953Z,64.49
2022-08-25T11:46:41.907Z,63.73
2022-08-25T11:47:41.885Z,63.51
2022-08-25T11:48:41.874Z,62.13
2022-08-25T11:49:41.852Z,62.30
2022-08-25T11:50:41.846Z,61.61
2022-08-25T11:51:41.816Z,60.82
2022-08-25T11:52:41.826Z,60.03
2022-08-25T11:53:42.336Z,62.10
2022-08-25T11:54:41.806Z,60.50
2022-08-25T11:55:41.772Z,60.50
2022-08-25T11:56:41.768Z,59.15
2022-08-25T11:57:41.769Z,60.03
2022-08-25T11:58:41.739Z,61.74
2022-08-25T11:59:41.746Z,59.86
2022-08-25T12:00:41.718Z,60.95
2022-08-25T12:01:42.659Z,61.54
2022-08-25T12:02:42.578Z,61.34
2022-08-25T12:03:41.661Z,62.09
2022-08-25T12:04:44.309Z,62.49
2022-08-25T12:05:41.759Z,61.27
2022-08-25T12:06:41.641Z,62.75
2022-08-25T12:07:41.664Z,62.46
2022-08-25T12:08:41.604Z,61.18
2022-08-25T12:09:41.602Z,60.78
2022-08-25T12:10:41.590Z,63.70
2022-08-25T12:11:41.713Z,62.69
2022-08-25T12:12:41.557Z,61.16
2022-08-25T12:13:41.536Z,60.63
2022-08-25T12:14:41.524Z,58.37
2022-08-25T12:15:41.517Z,59.94
2022-08-25T12:16:41.617Z,59.16
2022-08-25T12:17:41.493Z,59.26
2022-08-25T12:18:45.938Z,56.99
2022-08-25T12:19:41.469Z,57.32
2022-08-25T12:20:41.451Z,59.71
2022-08-25T12:21:41.746Z,58.36
2022-08-25T12:22:41.430Z,59.44
2022-08-25T12:23:44.776Z,59.12
2022-08-25T12:24:41.402Z,60.10
2022-08-25T12:25:43.498Z,61.41
2022-08-25T12:26:41.383Z,60.20
2022-08-25T12:27:41.375Z,59.84
2022-08-25T12:28:41.424Z,61.97
2022-08-25T12:29:41.324Z,61.18
2022-08-25T12:30:41.346Z,59.19
2022-08-25T12:31:41.317Z,60.34
2022-08-25T12:32:41.288Z,59.33
2022-08-25T12:33:41.277Z,58.74
2022-08-25T12:34:41.274Z,58.05
2022-08-25T12:35:41.953Z,58.64
2022-08-25T12:36:41.264Z,57.76
2022-08-25T12:37:41.228Z,57.78
2022-08-25T12:38:43.285Z,58.76
2022-08-25T12:39:41.200Z,58.94
2022-08-25T12:40:41.197Z,60.18
2022-08-25T12:41:41.201Z,58.94
2022-08-25T12:42:41.164Z,58.28
2022-08-25T12:43:42.174Z,59.65
2022-08-25T12:44:41.143Z,59.42
2022-08-25T12:45:41.181Z,58.12
2022-08-25T12:46:41.143Z,57.82
2022-08-25T12:47:44.737Z,58.97
2022-08-25T12:48:41.092Z,57.31
2022-08-25T12:49:41.084Z,58.71
2022-08-25T12:50:41.071Z,59.03
2022-08-25T12:51:41.045Z,58.74
2022-08-25T12:52:42.056Z,58.74
2022-08-25T12:53:41.025Z,58.61
2022-08-25T12:54:41.014Z,56.84
2022-08-25T12:55:40.998Z,55.60